KSAF/SAF METAR and TAF weather

Enter ICAO airport designator
Station Type Date Time Source
KSAF METAR 2022/12/04 11:37 UTC NOAA

KSAF 041137Z AUTO 30004KT 2SM BR BKN003 OVC011 05/05 A3030 RMK AO2 T00500050


Station Type Date Time Source
KSAF Decoded METAR 2022/12/04 11:37 UTC NOAA

SANTA FE COUNTY MUNICIPAL, NM, United States (KSAF) 35-37N 106-05W 1930M
Dec 04, 2022 - 06:37 AM EST / 2022.12.04 1137 UTC
Wind: from the WNW (300 degrees) at 5 MPH (4 KT):0
Visibility: 2 mile(s):0
Sky conditions: overcast
Weather: mist
Temperature: 41.0 F (5.0 C)
Dew Point: 41.0 F (5.0 C)
Relative Humidity: 100%
Pressure (altimeter): 30.3 in. Hg (1026 hPa)
ob: KSAF 041137Z AUTO 30004KT 2SM BR BKN003 OVC011 05/05 A3030 RMK AO2 T00500050
cycle: 11

Station Type Date Time Source
KSAF TAF 2022/12/04 12:27 UTC NOAA

TAF KSAF 041124Z 0412/0512 36006KT 5SM BR OVC012
TEMPO 0412/0416 1/2SM FG OVC002
FM041700 VRB06KT 4SM -RA BR OVC012
FM050000 26008KT P6SM VCSH BKN021 OVC050
FM050300 27007KT 4SM BR OVC015

Example: see airport list